Time;durP1;ratioP1;P1;durP2;ratioP2;P2;SDS_P1;SDS_P2;PMS_P1;PMS_P2;Temp;Humidity;BMP_temperature;BMP_pressure;BME280_temperature;BME280_humidity;BME280_pressure;Samples;Min_cycle;Max_cycle;Signal;HPM_P1;HPM_P2
2022/07/09 00:02:06;;;;;;;4.70;3.97;;;15.60;99.90;;;;;;6176271;23;20499;-87
2022/07/09 00:04:33;;;;;;;4.20;3.80;;;15.60;99.90;;;;;;6173808;23;20461;-87
2022/07/09 00:07:01;;;;;;;4.70;3.87;;;15.50;99.90;;;;;;6180079;23;20451;-88
2022/07/09 00:09:30;;;;;;;5.10;4.10;;;15.50;99.90;;;;;;6181611;23;20445;-88
2022/07/09 00:11:59;;;;;;;4.80;3.70;;;15.40;99.90;;;;;;6184440;23;20969;-87
2022/07/09 00:14:26;;;;;;;4.40;4.00;;;15.40;99.90;;;;;;6176279;23;20437;-88
2022/07/09 00:16:53;;;;;;;5.80;4.53;;;15.40;99.90;;;;;;6178834;23;20472;-87
2022/07/09 00:19:20;;;;;;;4.03;3.63;;;15.30;99.90;;;;;;6164675;23;20460;-87
2022/07/09 00:21:47;;;;;;;4.80;4.30;;;15.30;99.90;;;;;;6171841;23;20455;-88
2022/07/09 00:24:14;;;;;;;4.40;4.10;;;15.20;99.90;;;;;;6158652;23;20535;-88
2022/07/09 00:26:41;;;;;;;4.50;4.10;;;15.20;99.90;;;;;;6189226;23;20441;-88
2022/07/09 00:29:09;;;;;;;4.37;3.97;;;15.10;99.90;;;;;;6169287;23;20439;-88
2022/07/09 00:31:36;;;;;;;4.77;4.23;;;15.10;99.90;;;;;;6170064;23;20438;-88
2022/07/09 00:34:03;;;;;;;6.07;3.90;;;15.00;99.90;;;;;;6162650;23;21018;-87
2022/07/09 00:36:30;;;;;;;5.27;4.20;;;15.00;99.90;;;;;;6173139;23;20469;-88
2022/07/09 00:38:57;;;;;;;4.77;4.13;;;15.00;99.90;;;;;;6162690;23;20442;-88
2022/07/09 00:41:24;;;;;;;4.90;4.17;;;15.00;99.90;;;;;;6179350;23;20547;-88
2022/07/09 00:43:51;;;;;;;4.57;4.17;;;15.10;99.90;;;;;;6178675;23;20438;-88
2022/07/09 00:46:20;;;;;;;5.53;4.10;;;15.10;99.90;;;;;;6172054;23;20463;-87
2022/07/09 00:48:47;;;;;;;4.93;4.30;;;15.20;99.90;;;;;;6178262;23;20830;-87
2022/07/09 00:51:15;;;;;;;6.47;4.20;;;15.30;99.90;;;;;;6169609;23;20973;-88
2022/07/09 00:53:42;;;;;;;5.07;4.00;;;15.30;99.90;;;;;;6176348;23;20445;-87
2022/07/09 00:56:09;;;;;;;6.07;4.07;;;15.30;99.90;;;;;;6178970;23;20473;-88
2022/07/09 00:58:37;;;;;;;4.50;4.10;;;15.20;99.90;;;;;;6163091;23;20972;-87
2022/07/09 01:01:04;;;;;;;6.00;4.50;;;15.20;99.90;;;;;;6178208;23;20513;-88
2022/07/09 01:03:33;;;;;;;7.23;5.03;;;15.20;99.90;;;;;;6189525;23;20444;-88
2022/07/09 01:06:00;;;;;;;5.40;4.53;;;15.20;99.90;;;;;;6178623;23;20461;-88
2022/07/09 01:08:27;;;;;;;4.70;4.30;;;15.10;99.90;;;;;;6164267;23;20514;-88
2022/07/09 01:10:54;;;;;;;5.77;4.70;;;15.10;99.90;;;;;;6163956;23;20442;-88
2022/07/09 01:13:22;;;;;;;4.67;4.20;;;15.10;99.90;;;;;;6163369;23;20449;-88
2022/07/09 01:15:49;;;;;;;4.73;4.33;;;15.10;99.90;;;;;;6181585;23;20529;-88
2022/07/09 01:18:17;;;;;;;5.00;4.53;;;15.20;99.90;;;;;;6176062;23;20447;-88
2022/07/09 01:20:45;;;;;;;6.67;4.33;;;15.20;99.90;;;;;;6181942;23;20494;-87
2022/07/09 01:23:14;;;;;;;4.57;4.10;;;15.20;99.90;;;;;;6169704;23;20458;-88
2022/07/09 01:25:44;;;;;;;5.20;4.70;;;15.20;99.90;;;;;;6171128;23;20496;-88
2022/07/09 01:28:12;;;;;;;5.00;4.50;;;15.20;99.90;;;;;;6194542;23;20445;-88
2022/07/09 01:30:42;;;;;;;4.97;4.37;;;15.20;99.90;;;;;;6182352;23;20468;-88
2022/07/09 01:33:09;;;;;;;5.57;5.00;;;15.20;99.90;;;;;;6180571;23;20477;-88
2022/07/09 01:35:36;;;;;;;4.60;4.20;;;15.20;99.90;;;;;;6172405;23;20478;-88
2022/07/09 01:38:09;;;;;;;6.93;4.57;;;15.20;99.90;;;;;;6167136;23;20440;-88
2022/07/09 01:40:36;;;;;;;6.03;4.43;;;15.20;99.90;;;;;;6186076;23;20444;-88
2022/07/09 01:43:03;;;;;;;5.20;4.67;;;15.10;99.90;;;;;;6183398;23;20801;-88
2022/07/09 01:45:31;;;;;;;7.13;4.90;;;15.10;99.90;;;;;;6175456;23;20458;-88
2022/07/09 01:47:58;;;;;;;5.00;4.53;;;15.10;99.90;;;;;;6178759;23;20445;-88
2022/07/09 01:50:25;;;;;;;4.90;4.50;;;15.00;99.90;;;;;;6179709;23;20438;-88
2022/07/09 01:52:52;;;;;;;5.27;4.87;;;15.10;99.90;;;;;;6182101;23;20505;-88
2022/07/09 01:55:20;;;;;;;5.53;4.93;;;15.00;99.90;;;;;;6220037;23;20472;-88
2022/07/09 01:57:47;;;;;;;6.10;4.33;;;14.90;99.90;;;;;;6195775;23;20430;-88
2022/07/09 02:00:30;;;;;;;5.40;5.00;;;14.60;99.90;;;;;;6200801;23;20445;-88
2022/07/09 02:02:57;;;;;;;5.20;4.70;;;14.40;99.90;;;;;;6173717;23;20442;-87
2022/07/09 02:05:24;;;;;;;6.10;5.40;;;14.20;99.90;;;;;;6205935;23;20448;-88
2022/07/09 02:07:51;;;;;;;8.90;6.00;;;14.00;99.90;;;;;;6207424;23;20187;-87
2022/07/09 02:10:20;;;;;;;5.57;5.03;;;13.90;99.90;;;;;;6195233;23;20214;-87
2022/07/09 02:12:47;;;;;;;5.73;4.93;;;13.80;99.90;;;;;;6208056;23;20432;-88
2022/07/09 02:15:14;;;;;;;6.20;5.60;;;13.70;99.90;;;;;;6164837;23;20492;-88
2022/07/09 02:17:41;;;;;;;6.28;5.68;;;13.60;99.90;;;;;;6158867;23;20469;-88
2022/07/09 02:20:09;;;;;;;6.63;6.03;;;13.60;99.90;;;;;;6167429;23;20189;-88
2022/07/09 02:22:37;;;;;;;9.80;5.90;;;13.60;99.90;;;;;;6159640;23;20586;-88
2022/07/09 02:25:05;;;;;;;6.20;5.70;;;13.50;99.90;;;;;;6157863;23;20665;-88
2022/07/09 02:27:33;;;;;;;6.55;5.93;;;13.50;99.90;;;;;;6157430;23;20452;-88
2022/07/09 02:30:00;;;;;;;6.70;6.07;;;13.50;99.90;;;;;;6179317;23;20184;-88
2022/07/09 02:32:27;;;;;;;7.28;6.00;;;13.50;99.90;;;;;;6165092;23;20447;-88
2022/07/09 02:34:54;;;;;;;5.90;5.40;;;13.40;99.90;;;;;;6178809;23;20285;-88
2022/07/09 02:37:21;;;;;;;6.55;5.95;;;13.40;99.90;;;;;;6190021;23;20761;-88
2022/07/09 02:39:48;;;;;;;6.18;5.57;;;13.40;99.90;;;;;;6158439;23;20634;-88
2022/07/09 02:42:15;;;;;;;5.57;5.00;;;13.40;99.90;;;;;;6180659;23;20183;-87
2022/07/09 02:44:44;;;;;;;6.00;5.40;;;13.40;99.90;;;;;;6175652;23;20456;-88
2022/07/09 02:47:12;;;;;;;5.63;5.23;;;13.40;99.90;;;;;;6180907;23;20187;-88
2022/07/09 02:49:39;;;;;;;8.45;5.57;;;13.40;99.90;;;;;;6164983;23;20468;-88
2022/07/09 02:52:07;;;;;;;6.03;5.10;;;13.40;99.90;;;;;;6156511;23;20583;-88
2022/07/09 02:54:36;;;;;;;4.95;4.55;;;13.30;99.90;;;;;;6160536;23;20970;-88
2022/07/09 02:57:03;;;;;;;5.30;4.90;;;13.30;99.90;;;;;;6181779;23;20218;-87
2022/07/09 02:59:31;;;;;;;5.75;5.25;;;13.30;99.90;;;;;;6160763;23;20238;-88
2022/07/09 03:01:59;;;;;;;6.20;5.60;;;13.30;99.90;;;;;;6159524;23;20195;-89
2022/07/09 03:04:26;;;;;;;7.30;4.77;;;13.40;99.90;;;;;;6180408;23;20210;-88
2022/07/09 03:06:53;;;;;;;5.53;5.13;;;13.40;99.90;;;;;;6179173;23;20479;-88
2022/07/09 03:09:20;;;;;;;7.47;5.30;;;13.40;99.90;;;;;;6175742;23;20598;-88
2022/07/09 03:11:47;;;;;;;5.55;5.15;;;13.40;99.90;;;;;;6174493;23;20187;-88
2022/07/09 03:14:14;;;;;;;4.90;4.50;;;13.40;99.90;;;;;;6163943;23;20207;-89
2022/07/09 03:16:41;;;;;;;7.57;5.10;;;13.40;99.90;;;;;;6176526;23;20470;-88
2022/07/09 03:19:11;;;;;;;6.93;5.27;;;13.50;99.90;;;;;;6176786;23;20785;-88
2022/07/09 03:21:38;;;;;;;7.70;5.40;;;13.60;99.90;;;;;;6162816;23;20542;-88
2022/07/09 03:24:08;;;;;;;6.07;4.70;;;13.60;99.90;;;;;;6169778;23;20544;-88
2022/07/09 03:26:35;;;;;;;5.20;4.80;;;13.60;99.90;;;;;;6159771;23;20549;-88
2022/07/09 03:29:01;;;;;;;5.90;5.30;;;13.70;99.90;;;;;;6154245;23;20452;-88
2022/07/09 03:31:29;;;;;;;6.73;5.87;;;13.70;99.90;;;;;;6176686;23;20773;-88
2022/07/09 03:33:57;;;;;;;6.83;5.50;;;13.70;99.90;;;;;;6181802;23;20476;-88
2022/07/09 03:36:25;;;;;;;5.80;5.30;;;13.70;99.90;;;;;;6161596;23;20504;-88
2022/07/09 03:38:52;;;;;;;6.13;4.73;;;13.70;99.90;;;;;;6180135;23;20451;-88
2022/07/09 03:41:19;;;;;;;5.70;5.20;;;13.70;99.90;;;;;;6176609;23;20495;-88
2022/07/09 03:43:46;;;;;;;5.90;5.40;;;13.70;99.90;;;;;;6176761;23;20436;-88
2022/07/09 03:46:13;;;;;;;5.90;5.40;;;13.70;99.90;;;;;;6170296;23;20441;-88
2022/07/09 03:48:40;;;;;;;6.30;5.70;;;13.70;99.90;;;;;;6170853;23;20900;-88
2022/07/09 03:51:07;;;;;;;6.60;6.00;;;13.70;99.90;;;;;;6169846;23;20523;-88
2022/07/09 03:53:35;;;;;;;6.77;5.73;;;13.70;99.90;;;;;;6168590;23;20451;-88
2022/07/09 03:56:02;;;;;;;6.38;5.78;;;13.70;99.90;;;;;;6181691;23;20449;-88
2022/07/09 03:58:29;;;;;;;6.13;5.57;;;13.60;99.90;;;;;;6163162;23;20191;-89
2022/07/09 04:00:56;;;;;;;6.23;5.63;;;13.60;99.90;;;;;;6162698;23;20441;-89
2022/07/09 04:03:23;;;;;;;6.05;5.55;;;13.60;99.90;;;;;;6165454;23;20508;-88
2022/07/09 04:05:50;;;;;;;6.53;5.90;;;13.60;99.90;;;;;;6177933;23;20209;-87
2022/07/09 04:08:17;;;;;;;7.17;6.00;;;13.60;99.90;;;;;;6167832;23;20437;-88
2022/07/09 04:10:46;;;;;;;6.75;6.03;;;13.60;99.90;;;;;;6172791;23;20946;-88
2022/07/09 04:13:13;;;;;;;6.60;5.60;;;13.50;99.90;;;;;;6165192;23;20302;-88
2022/07/09 04:15:40;;;;;;;6.13;5.40;;;13.40;99.90;;;;;;6170257;23;20213;-88
2022/07/09 04:18:07;;;;;;;6.07;5.57;;;13.30;99.90;;;;;;6174867;23;20220;-88
2022/07/09 04:20:34;;;;;;;6.50;6.00;;;13.20;99.90;;;;;;6181243;23;20203;-88
2022/07/09 04:23:01;;;;;;;8.32;6.80;;;13.20;99.90;;;;;;6176770;23;20186;-87
2022/07/09 04:25:28;;;;;;;8.30;6.10;;;13.10;99.90;;;;;;6179334;23;20225;-88
2022/07/09 04:27:58;;;;;;;6.45;5.88;;;13.00;99.90;;;;;;6178240;23;20202;-91
2022/07/09 04:30:26;;;;;;;7.82;6.68;;;13.00;99.90;;;;;;6187398;23;20214;-89
2022/07/09 04:32:53;;;;;;;7.35;6.30;;;13.00;99.90;;;;;;6174769;23;20288;-89
2022/07/09 04:35:20;;;;;;;7.75;7.05;;;13.00;99.90;;;;;;6169354;23;20203;-89
2022/07/09 04:37:47;;;;;;;7.85;7.15;;;13.00;99.90;;;;;;6175360;23;20694;-89
2022/07/09 04:40:14;;;;;;;7.35;6.75;;;13.00;99.90;;;;;;6154338;23;20271;-89
2022/07/09 04:42:41;;;;;;;8.50;7.70;;;12.90;99.90;;;;;;6159515;23;20191;-89
2022/07/09 04:45:11;;;;;;;7.10;6.60;;;12.90;99.90;;;;;;6181337;23;20289;-88
2022/07/09 04:47:38;;;;;;;8.05;7.13;;;12.90;99.90;;;;;;6170410;23;20188;-88
2022/07/09 04:50:05;;;;;;;7.15;6.45;;;13.00;99.90;;;;;;6167387;23;20195;-88
2022/07/09 04:52:32;;;;;;;7.38;6.25;;;13.00;99.90;;;;;;6167511;23;20193;-89
2022/07/09 04:54:59;;;;;;;7.93;6.35;;;13.00;99.90;;;;;;6155021;23;20214;-89
2022/07/09 04:57:27;;;;;;;7.10;6.50;;;13.10;99.90;;;;;;6173471;23;20246;-89
2022/07/09 04:59:59;;;;;;;7.38;6.68;;;13.20;99.90;;;;;;6196694;23;20277;-91
2022/07/09 05:02:28;;;;;;;6.78;5.95;;;13.20;99.90;;;;;;6191169;23;20532;-88
2022/07/09 05:04:56;;;;;;;7.78;6.90;;;13.40;99.90;;;;;;6182247;23;20738;-89
2022/07/09 05:07:23;;;;;;;7.55;5.85;;;13.40;99.90;;;;;;6176309;23;20549;-89
2022/07/09 05:09:50;;;;;;;6.82;6.15;;;13.50;99.90;;;;;;6183477;23;20187;-89
2022/07/09 05:12:17;;;;;;;6.15;5.65;;;13.60;99.90;;;;;;6176191;23;20191;-89
2022/07/09 05:14:45;;;;;;;6.63;6.10;;;13.70;99.90;;;;;;6156303;23;20295;-89
2022/07/09 05:17:12;;;;;;;6.67;6.03;;;13.70;99.90;;;;;;6167072;23;20255;-88
2022/07/09 05:19:43;;;;;;;6.20;5.60;;;13.80;99.90;;;;;;6182735;23;20492;-89
2022/07/09 05:22:10;;;;;;;6.25;5.75;;;13.80;99.90;;;;;;6181373;23;20186;-85
2022/07/09 05:24:37;;;;;;;6.57;6.00;;;13.80;99.90;;;;;;6191961;23;20210;-87
2022/07/09 05:27:06;;;;;;;7.10;6.27;;;13.80;99.90;;;;;;6191475;23;20444;-87
2022/07/09 05:29:33;;;;;;;6.97;6.27;;;13.90;99.90;;;;;;6161477;23;20438;-84
2022/07/09 05:32:00;;;;;;;7.43;6.70;;;13.90;99.90;;;;;;6161900;23;20943;-88
2022/07/09 05:34:27;;;;;;;6.70;6.10;;;14.00;99.90;;;;;;6168234;23;20507;-88
2022/07/09 05:36:56;;;;;;;6.33;5.83;;;14.10;99.90;;;;;;6175917;23;20461;-89
2022/07/09 05:39:24;;;;;;;7.57;6.67;;;14.20;99.90;;;;;;6184586;23;20441;-88
2022/07/09 05:41:51;;;;;;;6.37;5.77;;;14.30;99.90;;;;;;6179690;23;20433;-89
2022/07/09 05:44:18;;;;;;;6.30;5.20;;;14.40;99.90;;;;;;6181064;23;20454;-90
2022/07/09 05:46:45;;;;;;;6.60;6.07;;;14.50;99.90;;;;;;6179700;23;20931;-89
2022/07/09 05:49:12;;;;;;;6.80;6.20;;;14.60;99.90;;;;;;6179060;23;20952;-89
2022/07/09 05:51:40;;;;;;;8.50;5.87;;;14.70;99.90;;;;;;6171194;23;20954;-87
2022/07/09 05:54:09;;;;;;;6.63;6.03;;;14.90;99.90;;;;;;6173676;23;21057;-88
2022/07/09 05:56:36;;;;;;;6.23;5.73;;;15.00;99.90;;;;;;6174217;23;20448;-89
2022/07/09 05:59:03;;;;;;;6.00;5.40;;;15.20;99.90;;;;;;6177196;23;20429;-88
2022/07/09 06:01:30;;;;;;;6.27;5.67;;;15.30;99.90;;;;;;6181317;23;20450;-87
2022/07/09 06:03:57;;;;;;;6.67;6.07;;;15.40;99.90;;;;;;6176925;23;20530;-87
2022/07/09 06:06:24;;;;;;;5.90;5.40;;;15.50;99.90;;;;;;6179087;23;20440;-88
2022/07/09 06:08:52;;;;;;;6.23;5.63;;;15.60;99.90;;;;;;6175954;23;20854;-88
2022/07/09 06:11:20;;;;;;;5.47;4.97;;;15.80;99.90;;;;;;6175190;23;20474;-89
2022/07/09 06:13:47;;;;;;;6.30;5.30;;;15.90;99.90;;;;;;6185278;23;20458;-88
2022/07/09 06:16:15;;;;;;;5.70;5.30;;;16.00;99.90;;;;;;6180317;23;20438;-88
2022/07/09 06:18:42;;;;;;;5.37;4.67;;;16.10;99.90;;;;;;6181665;23;20462;-87
2022/07/09 06:21:09;;;;;;;5.00;4.57;;;16.20;99.90;;;;;;6173993;23;20434;-88
2022/07/09 06:23:36;;;;;;;7.10;5.27;;;16.30;99.90;;;;;;6181967;23;20468;-88
2022/07/09 06:26:03;;;;;;;4.87;4.47;;;16.40;99.90;;;;;;6164596;23;20942;-87
2022/07/09 06:28:31;;;;;;;5.63;4.90;;;16.60;99.90;;;;;;6166591;23;20945;-87
2022/07/09 06:30:58;;;;;;;5.60;5.10;;;16.70;99.90;;;;;;6174649;23;20453;-91
2022/07/09 06:33:26;;;;;;;4.00;3.70;;;16.90;99.90;;;;;;6172808;23;20430;-90
2022/07/09 06:35:53;;;;;;;9.17;5.03;;;17.20;99.90;;;;;;6176541;23;20469;-89
2022/07/09 06:38:20;;;;;;;5.33;3.87;;;17.40;99.90;;;;;;6162364;23;20477;-89
2022/07/09 06:40:47;;;;;;;5.47;3.77;;;17.60;99.90;;;;;;6165963;23;20446;-89
2022/07/09 06:43:14;;;;;;;6.50;4.10;;;17.80;99.90;;;;;;6179232;23;20477;-89
2022/07/09 06:45:44;;;;;;;5.07;4.40;;;17.90;99.90;;;;;;6168764;23;20809;-87
2022/07/09 06:48:12;;;;;;;4.33;3.87;;;18.00;99.90;;;;;;6168930;23;20474;-84
2022/07/09 06:50:39;;;;;;;3.30;3.00;;;18.10;99.90;;;;;;6176092;23;20509;-85
2022/07/09 06:53:06;;;;;;;4.07;3.77;;;18.20;99.90;;;;;;6177267;23;20438;-84
2022/07/09 06:55:33;;;;;;;3.80;3.37;;;18.30;99.90;;;;;;6172075;23;20473;-84
2022/07/09 06:58:01;;;;;;;8.00;4.60;;;18.50;99.90;;;;;;6151526;23;20463;-85
2022/07/09 07:00:28;;;;;;;3.70;3.40;;;18.60;99.90;;;;;;6171109;23;20435;-85
2022/07/09 07:02:59;;;;;;;4.43;3.90;;;18.70;99.90;;;;;;6167303;23;20496;-85
2022/07/09 07:05:27;;;;;;;6.10;3.60;;;18.80;99.90;;;;;;6173341;23;20437;-84
2022/07/09 07:07:56;;;;;;;3.97;3.67;;;19.00;99.90;;;;;;6173366;23;20444;-84
2022/07/09 07:10:24;;;;;;;5.10;3.60;;;19.20;99.90;;;;;;6172258;23;20450;-84
2022/07/09 07:12:51;;;;;;;5.90;3.50;;;19.30;99.90;;;;;;6168559;23;20474;-85
2022/07/09 07:15:18;;;;;;;4.93;3.90;;;19.50;99.90;;;;;;6168508;23;20455;-84
2022/07/09 07:17:47;;;;;;;4.50;3.53;;;19.50;99.90;;;;;;6180125;23;20461;-85
2022/07/09 07:20:17;;;;;;;5.00;4.07;;;19.60;99.90;;;;;;6173603;23;20444;-85
2022/07/09 07:22:46;;;;;;;4.37;3.53;;;19.70;99.90;;;;;;6169694;23;20427;-85
2022/07/09 07:25:14;;;;;;;4.93;3.60;;;19.80;99.90;;;;;;6174739;23;20456;-86
2022/07/09 07:27:41;;;;;;;3.33;3.03;;;19.90;99.90;;;;;;6175447;23;20449;-85
2022/07/09 07:30:08;;;;;;;4.27;3.50;;;20.00;99.90;;;;;;6171828;23;20437;-84
2022/07/09 07:32:36;;;;;;;3.87;3.03;;;20.10;99.90;;;;;;6170120;23;20435;-85
2022/07/09 07:35:03;;;;;;;3.93;3.53;;;20.20;99.90;;;;;;6176037;23;20513;-84
2022/07/09 07:37:31;;;;;;;4.30;3.27;;;20.30;99.90;;;;;;6175486;23;20519;-84
2022/07/09 07:39:58;;;;;;;7.83;3.43;;;20.40;99.90;;;;;;6171658;23;20441;-92
2022/07/09 07:42:28;;;;;;;3.93;3.50;;;20.60;99.90;;;;;;6174972;23;20443;-85
2022/07/09 07:44:55;;;;;;;3.70;3.37;;;21.00;99.90;;;;;;6200400;23;20449;-84
2022/07/09 07:47:23;;;;;;;6.50;3.60;;;21.50;99.90;;;;;;6203911;23;20501;-86
2022/07/09 07:49:51;;;;;;;4.47;3.20;;;21.90;99.90;;;;;;6200006;23;20442;-89
2022/07/09 07:52:18;;;;;;;3.73;3.00;;;22.30;99.90;;;;;;6176168;23;20475;-84
2022/07/09 07:54:47;;;;;;;4.77;2.83;;;22.80;99.90;;;;;;6191686;23;20474;-88
2022/07/09 07:57:14;;;;;;;3.23;2.90;;;23.70;99.90;;;;;;6210660;23;20425;-87
2022/07/09 07:59:41;;;;;;;3.20;2.73;;;24.30;98.70;;;;;;6209928;23;20478;-88
2022/07/09 08:02:08;;;;;;;3.70;2.93;;;24.70;97.40;;;;;;6207997;23;20530;-89
2022/07/09 08:04:36;;;;;;;5.57;2.83;;;25.30;95.00;;;;;;6207716;23;20466;-88
2022/07/09 08:07:05;;;;;;;4.03;2.57;;;25.60;93.50;;;;;;6182013;23;20429;-88
2022/07/09 08:09:32;;;;;;;4.60;3.10;;;25.80;92.40;;;;;;6190689;23;20437;-88
2022/07/09 08:12:01;;;;;;;3.10;2.70;;;26.00;91.80;;;;;;6185356;23;20480;-88
2022/07/09 08:14:29;;;;;;;3.00;2.70;;;26.10;91.20;;;;;;6178885;23;20501;-88
2022/07/09 08:17:04;;;;;;;3.40;2.63;;;26.30;91.50;;;;;;6182998;23;20446;-87
2022/07/09 08:19:40;;;;;;;2.90;2.37;;;26.70;90.10;;;;;;6177328;23;21018;-88
2022/07/09 08:22:07;;;;;;;5.50;2.60;;;26.90;87.80;;;;;;6179256;23;20435;-88
2022/07/09 08:24:34;;;;;;;3.60;2.43;;;27.00;88.30;;;;;;6178383;23;20523;-88
2022/07/09 08:27:03;;;;;;;3.77;2.40;;;27.30;87.00;;;;;;6178367;23;20521;-88
2022/07/09 08:29:31;;;;;;;3.37;2.00;;;27.40;85.80;;;;;;6178060;23;20482;-88
2022/07/09 08:31:58;;;;;;;3.00;2.40;;;27.10;84.90;;;;;;6180621;23;20437;-88
2022/07/09 08:34:25;;;;;;;4.53;2.30;;;27.40;84.30;;;;;;6162539;23;20514;-85
2022/07/09 08:36:52;;;;;;;3.10;2.20;;;27.70;84.20;;;;;;6166658;23;20463;-90
2022/07/09 08:39:19;;;;;;;5.30;2.17;;;28.00;83.20;;;;;;6167596;23;20464;-89
2022/07/09 08:41:46;;;;;;;3.50;1.90;;;28.40;80.10;;;;;;6167818;23;20436;-89
2022/07/09 08:44:18;;;;;;;2.80;2.00;;;28.70;80.00;;;;;;6172165;23;20458;-89
2022/07/09 08:46:47;;;;;;;3.00;1.77;;;28.90;78.70;;;;;;6169306;23;20464;-89
2022/07/09 08:49:17;;;;;;;2.83;1.60;;;29.10;77.40;;;;;;6169679;22;20552;-95
2022/07/09 08:51:45;;;;;;;2.43;1.80;;;29.30;76.90;;;;;;6165176;23;20605;-96
2022/07/09 08:54:14;;;;;;;4.70;1.70;;;29.60;74.90;;;;;;6163603;23;20521;-95
2022/07/09 08:56:42;;;;;;;3.03;1.83;;;29.70;74.70;;;;;;6162474;23;20445;-95
2022/07/09 08:59:09;;;;;;;2.70;1.53;;;29.90;72.90;;;;;;6163956;23;20547;-96
2022/07/09 09:01:40;;;;;;;3.10;1.90;;;30.10;72.10;;;;;;6153371;23;20436;-95
2022/07/09 09:04:08;;;;;;;2.53;1.70;;;30.40;70.70;;;;;;6159441;23;20575;-94
2022/07/09 09:06:44;;;;;;;3.50;1.80;;;30.70;68.70;;;;;;6149188;23;20441;-94
2022/07/09 09:09:19;;;;;;;2.20;1.83;;;30.80;69.50;;;;;;6190667;23;20496;-94
2022/07/09 09:11:49;;;;;;;2.63;1.90;;;31.00;68.20;;;;;;6153328;23;20464;-94
2022/07/09 09:14:22;;;;;;;3.60;2.13;;;31.10;67.10;;;;;;6157301;23;20520;-95
2022/07/09 09:16:51;;;;;;;3.03;2.00;;;29.90;68.20;;;;;;6143916;23;20446;-92
2022/07/09 09:19:24;;;;;;;2.60;1.70;;;29.50;68.10;;;;;;6125290;23;20511;-90
2022/07/09 09:21:53;;;;;;;2.17;1.70;;;30.00;68.50;;;;;;6147904;23;20446;-87
2022/07/09 09:24:24;;;;;;;2.30;1.73;;;30.00;67.10;;;;;;6144936;23;20461;-82
2022/07/09 09:26:52;;;;;;;4.20;1.60;;;30.20;67.50;;;;;;6135670;23;20425;-86
2022/07/09 09:29:19;;;;;;;2.50;1.70;;;30.50;67.80;;;;;;6141135;23;20940;-88
2022/07/09 09:31:48;;;;;;;4.67;1.90;;;30.30;67.20;;;;;;6147337;23;20433;-86
2022/07/09 09:34:17;;;;;;;2.23;1.50;;;29.90;66.20;;;;;;6143061;23;20488;-87
2022/07/09 09:36:46;;;;;;;3.53;1.93;;;29.80;66.60;;;;;;6145366;23;20448;-86
2022/07/09 09:39:15;;;;;;;2.67;1.77;;;29.60;66.30;;;;;;6145858;23;20461;-87
2022/07/09 09:41:43;;;;;;;2.53;1.67;;;29.80;68.00;;;;;;6161736;23;20436;-86
2022/07/09 09:44:12;;;;;;;2.37;1.87;;;30.10;65.40;;;;;;6142063;23;20536;-86
2022/07/09 09:46:41;;;;;;;1.73;1.63;;;30.30;63.60;;;;;;6144417;23;20439;-83
2022/07/09 09:49:10;;;;;;;1.90;1.50;;;30.50;65.50;;;;;;6143981;23;20528;-83
2022/07/09 09:51:47;;;;;;;2.27;1.73;;;31.00;65.70;;;;;;6143072;23;20439;-84
2022/07/09 09:54:15;;;;;;;2.23;1.50;;;32.20;61.40;;;;;;6150389;23;20910;-85
2022/07/09 09:56:42;;;;;;;2.43;1.20;;;32.70;60.00;;;;;;6152207;23;20520;-85
2022/07/09 09:59:10;;;;;;;1.50;1.20;;;33.50;57.70;;;;;;6148452;23;20557;-86
2022/07/09 10:01:39;;;;;;;3.40;1.50;;;34.00;55.30;;;;;;6145249;23;20810;-85
2022/07/09 10:04:06;;;;;;;3.90;1.60;;;34.40;53.70;;;;;;6143190;23;20510;-85
2022/07/09 10:06:34;;;;;;;2.30;1.50;;;33.90;53.90;;;;;;6146490;23;20468;-87
2022/07/09 10:09:05;;;;;;;2.20;1.23;;;33.50;52.80;;;;;;6145818;23;20490;-84
2022/07/09 10:11:42;;;;;;;1.63;1.47;;;33.00;54.00;;;;;;6147843;23;20437;-83
2022/07/09 10:14:16;;;;;;;3.87;1.30;;;32.60;53.80;;;;;;6145525;23;20461;-84
2022/07/09 10:16:43;;;;;;;2.10;1.37;;;32.40;54.00;;;;;;6149460;23;20441;-84
2022/07/09 10:19:10;;;;;;;2.47;1.40;;;32.40;54.70;;;;;;6145373;23;20514;-84
2022/07/09 10:21:39;;;;;;;3.10;1.50;;;31.80;55.70;;;;;;6146067;23;21292;-84
2022/07/09 10:24:11;;;;;;;2.53;1.50;;;31.40;56.30;;;;;;6144907;23;20457;-84
2022/07/09 10:26:46;;;;;;;1.97;1.20;;;30.60;57.40;;;;;;6148849;23;20468;-84
2022/07/09 10:29:20;;;;;;;2.17;1.40;;;30.90;55.80;;;;;;6135257;23;20441;-84
2022/07/09 10:31:48;;;;;;;2.17;1.60;;;31.20;57.20;;;;;;6147405;23;20432;-88
2022/07/09 10:34:31;;;;;;;3.90;1.60;;;32.00;57.10;;;;;;6139700;23;20526;-87
2022/07/09 10:36:59;;;;;;;2.67;1.43;;;32.40;56.00;;;;;;6141512;23;20943;-88
2022/07/09 10:39:27;;;;;;;1.50;1.20;;;32.30;55.60;;;;;;6132533;23;20465;-88
2022/07/09 10:42:01;;;;;;;1.50;1.40;;;31.60;55.80;;;;;;6152796;23;20508;-87
2022/07/09 10:44:29;;;;;;;1.53;1.20;;;30.80;56.70;;;;;;6146198;23;20436;-88
2022/07/09 10:46:57;;;;;;;1.30;1.20;;;30.30;58.20;;;;;;6142369;23;20468;-89
2022/07/09 10:49:26;;;;;;;1.93;1.30;;;29.70;58.70;;;;;;6141480;23;20453;-88
2022/07/09 10:51:57;;;;;;;1.20;1.10;;;29.90;59.20;;;;;;6145954;23;20453;-88
2022/07/09 10:54:24;;;;;;;3.40;1.33;;;31.20;57.20;;;;;;6140865;23;20449;-88
2022/07/09 10:56:54;;;;;;;1.70;0.90;;;32.50;55.60;;;;;;6148372;23;20434;-88
2022/07/09 10:59:22;;;;;;;1.73;1.60;;;33.90;53.50;;;;;;6145393;23;20488;-87
2022/07/09 11:01:50;;;;;;;1.60;1.20;;;34.40;51.40;;;;;;6149950;23;20485;-87
2022/07/09 11:04:27;;;;;;;3.30;1.60;;;33.70;52.40;;;;;;6146410;23;20497;-87
2022/07/09 11:06:54;;;;;;;1.70;1.10;;;32.50;52.70;;;;;;6159086;23;20439;-88
2022/07/09 11:09:21;;;;;;;1.30;1.20;;;31.60;53.70;;;;;;6146822;23;20489;-87
2022/07/09 11:11:49;;;;;;;1.83;1.17;;;31.80;54.20;;;;;;6140100;23;20523;-86
2022/07/09 11:14:18;;;;;;;1.53;1.23;;;32.20;54.50;;;;;;6143399;23;20849;-86
2022/07/09 11:16:54;;;;;;;2.27;1.23;;;32.20;53.50;;;;;;6145061;23;20788;-87
2022/07/09 11:19:21;;;;;;;1.50;1.40;;;31.70;53.90;;;;;;6150472;23;20476;-88
2022/07/09 11:21:49;;;;;;;2.47;1.50;;;31.00;55.80;;;;;;6145761;23;20461;-88
2022/07/09 11:24:18;;;;;;;1.60;1.50;;;30.40;58.00;;;;;;6167148;23;20460;-89
2022/07/09 11:26:47;;;;;;;1.93;1.60;;;30.10;58.70;;;;;;6171554;23;20444;-86
2022/07/09 11:29:19;;;;;;;1.90;1.70;;;29.80;59.70;;;;;;6163713;23;20435;-87
2022/07/09 11:31:56;;;;;;;1.43;1.20;;;29.50;60.70;;;;;;6164833;23;20443;-87
2022/07/09 11:34:23;;;;;;;2.33;1.57;;;29.10;61.30;;;;;;6153915;23;20472;-87
2022/07/09 11:36:53;;;;;;;2.20;1.63;;;29.00;62.50;;;;;;6159539;23;20441;-87
2022/07/09 11:39:26;;;;;;;1.50;1.40;;;28.90;62.60;;;;;;6154978;23;20481;-87
2022/07/09 11:41:53;;;;;;;1.57;1.43;;;29.10;62.70;;;;;;6159307;23;20509;-85
2022/07/09 11:44:23;;;;;;;3.53;1.70;;;29.30;61.40;;;;;;6152649;23;20468;-86
2022/07/09 11:47:04;;;;;;;2.23;1.60;;;29.30;61.30;;;;;;6156925;23;20437;-89
2022/07/09 11:49:36;;;;;;;1.30;1.17;;;29.30;61.10;;;;;;6159059;23;20805;-87
2022/07/09 11:52:04;;;;;;;1.80;1.50;;;29.70;60.70;;;;;;6148266;23;20437;-82
2022/07/09 11:54:32;;;;;;;1.73;1.27;;;30.50;60.10;;;;;;6166759;23;20439;-82
2022/07/09 11:56:59;;;;;;;1.80;1.70;;;31.40;58.80;;;;;;6171181;23;20435;-82
2022/07/09 11:59:30;;;;;;;2.57;1.43;;;32.40;57.50;;;;;;6160332;23;20521;-82
2022/07/09 12:02:02;;;;;;;2.17;1.63;;;33.10;55.60;;;;;;6169852;23;20418;-87
2022/07/09 12:04:31;;;;;;;1.57;1.27;;;34.00;54.60;;;;;;6181979;23;20500;-85
2022/07/09 12:06:58;;;;;;;1.93;1.10;;;34.40;52.80;;;;;;6156375;23;20438;-87
2022/07/09 12:09:30;;;;;;;1.77;1.10;;;34.40;53.20;;;;;;6173051;23;20425;-92
2022/07/09 12:11:58;;;;;;;1.80;1.30;;;34.60;52.20;;;;;;6174713;23;20452;-85
2022/07/09 12:14:27;;;;;;;1.73;1.10;;;34.60;51.20;;;;;;6176306;23;20448;-87
2022/07/09 12:16:54;;;;;;;1.30;1.20;;;34.10;51.60;;;;;;6178440;23;20413;-86
2022/07/09 12:19:21;;;;;;;2.10;1.23;;;33.60;52.20;;;;;;6180589;23;20453;-86
2022/07/09 12:21:48;;;;;;;1.37;1.27;;;33.50;52.10;;;;;;6175419;23;20413;-88
2022/07/09 12:24:15;;;;;;;4.00;1.40;;;33.50;52.00;;;;;;6172585;23;20430;-87
2022/07/09 12:27:16;;;;;;;1.20;1.10;;;33.60;51.90;;;;;;6140542;23;20781;-87
2022/07/09 12:29:45;;;;;;;1.33;1.10;;;33.90;51.80;;;;;;6148635;23;20489;-86
2022/07/09 12:32:12;;;;;;;1.30;1.17;;;34.20;51.40;;;;;;6157457;23;20460;-88
2022/07/09 12:34:39;;;;;;;1.60;1.23;;;34.40;50.40;;;;;;6128166;23;20486;-88
2022/07/09 12:37:07;;;;;;;1.53;1.20;;;34.70;50.00;;;;;;6138812;23;20442;-87
2022/07/09 12:39:34;;;;;;;1.30;1.20;;;34.60;49.40;;;;;;6145146;23;20487;-88
2022/07/09 12:42:01;;;;;;;1.27;1.00;;;34.50;49.50;;;;;;6149804;23;20878;-89
2022/07/09 12:44:28;;;;;;;1.33;1.20;;;34.10;50.80;;;;;;6149186;23;20449;-86
2022/07/09 12:46:57;;;;;;;3.60;1.30;;;33.80;49.50;;;;;;6144805;23;20463;-91
2022/07/09 12:49:24;;;;;;;1.20;1.10;;;33.80;50.70;;;;;;6149452;23;20477;-89
2022/07/09 12:51:51;;;;;;;2.07;1.10;;;33.50;50.60;;;;;;6148309;23;20778;-86
2022/07/09 12:54:18;;;;;;;1.70;1.20;;;33.50;51.00;;;;;;6147896;23;20448;-86